Página principal
METAR-TAF:

METAR-TAF

Aeroportos :

Badajoz, Espanha

latitude: 38-53N, longitude: 006-49W, altura: 185 m

Observação actual do tempo

O boletim foi feito há 3 horas e 3 minutos, às 19:30 UTC
Vento 5 kt de oeste
Temperatura 35°C
Humidade 25%
Pressão 1014 hPa
Visibilidade 10 km ou mais
sem nuvens abaixo de 1500 metros e sem cumulonimbus

METAR: LEBZ 221930Z 27005KT CAVOK 35/12 Q1014

Hora: 00:33 (22:33 UTC)

Previsão

O boletim foi feito há 2 horas e 33 minutos, às 20:00 UTC
Previsão válida de 22 às 21 UTC a 23 às 21 UTC
Vento 6 kt de sudoeste
Visibilidade 10 km ou mais
sem nuvens abaixo de 1500 metros e sem cumulonimbus

TAF: LEBZ 222000Z 2221/2321 23006KT CAVOK TX41/2316Z TN22/2305Z

Observações e previsões do tempo de mais de 4000 aeroportos (mensagens METAR e TAF).

As estações disponíveis são os pontos amarelos e vermelhos sobre o mapa.

Mova o rato sobre o mapa para ver o nome da estação.

Depois clique no ponto para visualizar as observações e previsões meteorológicas.

Para alterar o mapa : clique nos botões verdes com uma cruz preta para aumentar o zoom; no botão verde com uma pitada de zoom; ou nas setas verdes para mapas adjacentes.


METAR-TAF: